Time;durP1;ratioP1;P1;durP2;ratioP2;P2;SDS_P1;SDS_P2;PMS_P1;PMS_P2;Temp;Humidity;BMP_temperature;BMP_pressure;BME280_temperature;BME280_humidity;BME280_pressure;Samples;Min_cycle;Max_cycle;Signal;HPM_P1;HPM_P2
2023/04/09 00:00:46;;;;;;;13.52;10.13;;;;;;;5.76;100.00;100490.56;5033446;28;20111;-75
2023/04/09 00:03:12;;;;;;;13.85;9.93;;;;;;;6.63;100.00;100609.13;5033143;28;20034;-75
2023/04/09 00:05:40;;;;;;;12.80;9.95;;;;;;;6.54;100.00;100629.34;5015012;28;20029;-75
2023/04/09 00:08:06;;;;;;;12.60;10.18;;;;;;;6.56;100.00;100601.56;5015373;28;20031;-74
2023/04/09 00:10:32;;;;;;;14.00;9.77;;;;;;;5.81;100.00;100464.50;5031948;28;20471;-75
2023/04/09 00:12:57;;;;;;;12.98;10.05;;;;;;;6.45;100.00;100560.34;5032044;28;20030;-74
2023/04/09 00:15:23;;;;;;;13.50;10.23;;;;;;;6.57;100.00;100573.78;5015289;28;20120;-76
2023/04/09 00:17:48;;;;;;;11.60;9.68;;;;;;;5.93;100.00;100532.63;5031119;28;20037;-75
2023/04/09 00:20:13;;;;;;;14.73;9.63;;;;;;;6.33;100.00;100570.44;5031767;28;20039;-75
2023/04/09 00:22:39;;;;;;;13.45;10.45;;;;;;;6.37;100.00;100589.81;5031326;28;20026;-74
2023/04/09 00:25:05;;;;;;;14.07;9.82;;;;;;;5.74;100.00;100494.78;5032496;28;20071;-75
2023/04/09 00:27:30;;;;;;;13.27;10.45;;;;;;;5.95;100.00;100495.63;5030954;28;20029;-74
2023/04/09 00:29:56;;;;;;;14.10;10.70;;;;;;;6.10;100.00;100513.25;5031465;28;20033;-74
2023/04/09 00:32:21;;;;;;;12.20;9.80;;;;;;;5.88;100.00;100467.91;5032433;28;20026;-74
2023/04/09 00:34:47;;;;;;;15.57;10.93;;;;;;;6.50;100.00;100551.06;5014820;28;20029;-74
2023/04/09 00:37:12;;;;;;;14.25;10.65;;;;;;;6.41;100.00;100493.84;5032750;28;20021;-74
2023/04/09 00:39:39;;;;;;;11.82;9.55;;;;;;;5.96;100.00;100448.53;5031275;28;20040;-76
2023/04/09 00:42:04;;;;;;;13.70;10.50;;;;;;;6.36;100.00;100487.16;5031437;28;20044;-74
2023/04/09 00:44:30;;;;;;;13.60;10.93;;;;;;;5.37;100.00;100397.31;5032496;28;20029;-75
2023/04/09 00:46:58;;;;;;;14.52;10.30;;;;;;;6.00;100.00;100488.06;5015166;28;20055;-75
2023/04/09 00:49:25;;;;;;;13.48;10.65;;;;;;;5.92;100.00;100436.78;5031233;28;20026;-75
2023/04/09 00:51:51;;;;;;;16.63;10.63;;;;;;;6.42;100.00;100498.06;5031317;28;20046;-75
2023/04/09 00:54:17;;;;;;;15.30;10.73;;;;;;;5.81;100.00;100420.75;5051901;28;20044;-74
2023/04/09 00:56:43;;;;;;;15.02;10.52;;;;;;;6.36;100.00;100503.13;5034133;28;20029;-74
2023/04/09 00:59:12;;;;;;;12.73;9.80;;;;;;;6.45;100.00;100489.63;5051733;28;20071;-74
2023/04/09 01:01:38;;;;;;;16.80;11.02;;;;;;;6.46;100.00;100498.88;5051126;28;20457;-74
2023/04/09 01:04:04;;;;;;;14.93;10.55;;;;;;;6.20;100.00;100430.78;5051458;28;20029;-74
2023/04/09 01:07:09;;;;;;;14.55;10.25;;;;;;;6.36;100.00;100462.72;5034606;28;20025;-73
2023/04/09 01:09:38;;;;;;;14.02;10.35;;;;;;;6.35;100.00;100475.34;5019978;28;20037;-76
2023/04/09 01:12:31;;;;;;;14.75;10.90;;;;;;;6.29;100.00;100463.59;5033850;28;20083;-73
2023/04/09 01:15:07;;;;;;;14.32;9.82;;;;;;;6.32;100.00;100445.91;5051673;28;20040;-75
2023/04/09 01:17:49;;;;;;;16.23;10.30;;;;;;;6.31;100.00;100456.00;5033437;28;20036;-75
2023/04/09 01:20:28;;;;;;;13.52;10.35;;;;;;;6.04;100.00;100374.47;5033688;28;20025;-75
2023/04/09 01:23:06;;;;;;;15.30;9.85;;;;;;;5.78;100.00;100360.25;5055059;28;20175;-75
2023/04/09 01:26:01;;;;;;;13.60;10.63;;;;;;;5.87;100.00;100377.91;5066822;28;20029;-76
2023/04/09 01:28:33;;;;;;;15.40;10.50;;;;;;;6.18;100.00;100419.03;5067066;28;20036;-74
2023/04/09 01:31:01;;;;;;;13.82;10.52;;;;;;;5.94;100.00;100351.81;5050353;28;20040;-76
2023/04/09 01:33:29;;;;;;;15.05;10.88;;;;;;;5.81;100.00;100370.31;5034129;28;20082;-76
2023/04/09 01:35:56;;;;;;;15.15;10.73;;;;;;;5.84;100.00;100385.50;5051159;28;20033;-74
2023/04/09 01:38:25;;;;;;;16.17;12.32;;;;;;;6.01;100.00;100436.75;5033222;28;20514;-75
2023/04/09 01:40:51;;;;;;;17.10;12.73;;;;;;;6.20;100.00;100427.44;5051183;28;20028;-76
2023/04/09 01:43:17;;;;;;;15.20;11.63;;;;;;;6.29;100.00;100420.69;5050872;28;20025;-74
2023/04/09 01:45:44;;;;;;;15.25;11.68;;;;;;;6.44;100.00;100409.69;5051413;28;20104;-74
2023/04/09 01:48:12;;;;;;;14.27;11.02;;;;;;;5.69;100.00;100335.03;5033464;28;20020;-74
2023/04/09 01:50:38;;;;;;;15.95;10.55;;;;;;;6.26;100.00;100409.75;5033115;28;20110;-74
2023/04/09 01:53:04;;;;;;;12.77;10.32;;;;;;;5.63;100.00;100319.91;5050800;28;20055;-74
2023/04/09 01:55:30;;;;;;;13.00;10.85;;;;;;;5.89;100.00;100310.63;5066666;28;20060;-74
2023/04/09 01:57:55;;;;;;;14.57;10.98;;;;;;;5.91;100.00;100382.09;5033557;28;20452;-74
2023/04/09 02:00:22;;;;;;;13.00;9.77;;;;;;;5.34;100.00;100331.75;5032839;28;20472;-73
2023/04/09 02:03:01;;;;;;;14.23;10.05;;;;;;;5.89;100.00;100398.91;5037385;28;20129;-74
2023/04/09 02:05:30;;;;;;;14.35;10.05;;;;;;;5.80;100.00;100378.75;5051050;28;20037;-73
2023/04/09 02:08:01;;;;;;;14.73;10.10;;;;;;;5.55;100.00;100302.28;5032778;28;20025;-75
2023/04/09 02:10:30;;;;;;;13.98;9.95;;;;;;;6.10;100.00;100393.84;5050494;28;20107;-75
2023/04/09 02:12:58;;;;;;;14.32;10.85;;;;;;;5.41;100.00;100305.72;5066468;28;20467;-74
2023/04/09 02:15:27;;;;;;;13.35;10.50;;;;;;;5.48;100.00;100308.22;5054840;28;20083;-74
2023/04/09 02:17:52;;;;;;;15.13;10.63;;;;;;;5.00;100.00;100311.63;5054979;28;20474;-74
2023/04/09 02:20:18;;;;;;;13.38;10.20;;;;;;;5.28;100.00;100309.91;5054596;28;20029;-73
2023/04/09 02:22:47;;;;;;;15.15;11.13;;;;;;;5.44;100.00;100315.78;5054435;28;20471;-74
2023/04/09 02:25:13;;;;;;;14.57;10.65;;;;;;;5.39;100.00;100274.63;5055212;28;20033;-75
2023/04/09 02:27:39;;;;;;;13.85;10.85;;;;;;;5.56;100.00;100296.44;5037074;28;20606;-74
2023/04/09 02:30:05;;;;;;;14.70;10.75;;;;;;;5.89;100.00;100377.06;5054989;28;20021;-73
2023/04/09 02:32:30;;;;;;;15.43;11.00;;;;;;;5.73;100.00;100342.59;5036495;28;20119;-74
2023/04/09 02:34:55;;;;;;;14.63;11.07;;;;;;;5.06;100.00;100231.00;5054972;28;20128;-75
2023/04/09 02:37:21;;;;;;;14.02;10.80;;;;;;;5.53;100.00;100283.81;5054221;28;20029;-74
2023/04/09 02:39:46;;;;;;;15.30;10.48;;;;;;;5.96;100.00;100356.00;5036245;28;20475;-75
2023/04/09 02:42:12;;;;;;;15.25;11.02;;;;;;;6.09;100.00;100366.91;5053794;28;20134;-75
2023/04/09 02:44:37;;;;;;;15.57;11.48;;;;;;;5.93;100.00;100090.28;5053979;28;20061;-74
2023/04/09 02:47:03;;;;;;;16.40;11.93;;;;;;;6.07;100.00;100059.06;5054328;28;20492;-74
2023/04/09 02:49:28;;;;;;;14.77;11.25;;;;;;;5.58;100.00;99991.34;5054797;28;20486;-74
2023/04/09 02:51:54;;;;;;;15.88;11.70;;;;;;;5.47;100.00;99909.94;5054067;28;20102;-75
2023/04/09 02:54:19;;;;;;;15.63;11.10;;;;;;;5.74;100.00;99966.00;5053604;28;20044;-74
2023/04/09 02:56:45;;;;;;;14.45;11.88;;;;;;;6.07;100.00;100006.06;5036379;28;21083;-74
2023/04/09 02:59:10;;;;;;;15.95;12.30;;;;;;;6.07;100.00;100022.91;5036509;28;20029;-74
2023/04/09 03:01:38;;;;;;;14.38;11.45;;;;;;;6.10;100.00;100016.13;5035942;28;20048;-74
2023/04/09 03:04:04;;;;;;;17.25;12.43;;;;;;;5.68;100.00;99929.91;5052796;28;20025;-74
2023/04/09 03:06:30;;;;;;;15.65;11.45;;;;;;;6.03;100.00;99953.13;5054165;28;20033;-75
2023/04/09 03:08:55;;;;;;;16.83;13.05;;;;;;;6.27;100.00;100013.44;5053462;28;20116;-74
2023/04/09 03:11:20;;;;;;;18.90;13.45;;;;;;;5.57;100.00;99936.72;5053963;28;20112;-74
2023/04/09 03:13:56;;;;;;;16.90;13.50;;;;;;;6.05;100.00;100029.63;5053778;28;20123;-75
2023/04/09 03:16:24;;;;;;;18.17;13.25;;;;;;;5.53;100.00;99965.31;5036121;28;20037;-75
2023/04/09 03:18:52;;;;;;;16.38;13.07;;;;;;;5.87;100.00;100035.69;5036394;28;20037;-74
2023/04/09 03:21:18;;;;;;;19.63;14.40;;;;;;;5.65;100.00;99950.09;5053331;28;20056;-74
2023/04/09 03:23:43;;;;;;;19.55;13.65;;;;;;;5.76;100.00;99998.75;5035772;28;20063;-75
2023/04/09 03:26:08;;;;;;;18.75;13.80;;;;;;;5.49;100.00;99961.16;5034965;28;20036;-76
2023/04/09 03:28:34;;;;;;;18.05;13.27;;;;;;;5.55;100.00;99956.91;5035593;28;20512;-73
2023/04/09 03:30:59;;;;;;;19.30;14.02;;;;;;;5.38;100.00;99947.81;5035479;28;20029;-73
2023/04/09 03:33:25;;;;;;;19.90;15.07;;;;;;;5.56;100.00;99945.97;5036010;28;20415;-74
2023/04/09 03:35:50;;;;;;;17.23;13.80;;;;;;;5.85;100.00;100026.44;5053157;28;20495;-76
2023/04/09 03:38:16;;;;;;;18.52;14.55;;;;;;;5.53;100.00;99940.09;5052237;28;20423;-75
2023/04/09 03:40:47;;;;;;;17.65;13.52;;;;;;;6.02;100.00;100017.88;5053298;28;20029;-74
2023/04/09 03:43:17;;;;;;;18.98;14.85;;;;;;;5.73;100.00;100042.50;5035526;28;20129;-74
2023/04/09 03:45:42;;;;;;;20.55;14.30;;;;;;;5.79;100.00;100037.41;5035826;28;20033;-75
2023/04/09 03:48:07;;;;;;;17.67;14.15;;;;;;;5.67;100.00;100013.94;5052805;28;20029;-74
2023/04/09 03:50:38;;;;;;;18.73;13.77;;;;;;;5.55;100.00;99994.72;5053077;28;20037;-75
2023/04/09 03:53:04;;;;;;;18.55;13.05;;;;;;;5.59;100.00;99937.53;5035153;28;20088;-74
2023/04/09 03:55:29;;;;;;;19.05;12.82;;;;;;;5.80;100.00;100036.53;5052341;28;20186;-75
2023/04/09 03:57:55;;;;;;;16.83;12.90;;;;;;;5.57;100.00;99965.28;5035466;28;20075;-74
2023/04/09 04:00:21;;;;;;;18.77;12.98;;;;;;;5.89;100.00;100040.72;5051671;28;20552;-74
2023/04/09 04:02:46;;;;;;;17.83;12.98;;;;;;;5.68;100.00;100049.25;5036139;28;20554;-75
2023/04/09 04:05:12;;;;;;;17.10;12.35;;;;;;;5.43;100.00;99958.69;5035550;28;20056;-75
2023/04/09 04:07:37;;;;;;;17.27;12.52;;;;;;;5.61;100.00;99959.38;5035004;28;20036;-75
2023/04/09 04:10:05;;;;;;;22.15;14.93;;;;;;;5.90;100.00;100049.97;5052204;28;20411;-75
2023/04/09 04:12:31;;;;;;;23.17;16.50;;;;;;;6.00;100.00;100032.19;5051215;28;20037;-74
2023/04/09 04:14:57;;;;;;;19.00;15.05;;;;;;;5.91;100.00;100026.41;5053313;28;20495;-75
2023/04/09 04:17:22;;;;;;;22.15;15.70;;;;;;;5.62;100.00;100050.97;5058611;28;20071;-75
2023/04/09 04:19:48;;;;;;;21.88;16.25;;;;;;;5.76;100.00;100011.38;5035178;28;20047;-76
2023/04/09 04:22:13;;;;;;;19.05;14.93;;;;;;;5.31;100.00;99976.44;5052241;28;20483;-76
2023/04/09 04:24:39;;;;;;;19.08;14.38;;;;;;;5.34;100.00;99959.59;5040514;28;20076;-74
2023/04/09 04:27:05;;;;;;;20.27;13.57;;;;;;;5.72;100.00;100032.41;5030467;28;20048;-74
2023/04/09 04:29:31;;;;;;;20.08;14.77;;;;;;;5.39;100.00;99979.72;5034472;28;20040;-76
2023/04/09 04:31:56;;;;;;;20.17;14.75;;;;;;;5.75;100.00;100072.72;5052036;28;20029;-73
2023/04/09 04:34:22;;;;;;;21.17;14.27;;;;;;;6.24;100.00;99968.03;5051907;28;20098;-76
2023/04/09 04:36:47;;;;;;;20.25;13.50;;;;;;;5.91;100.00;100071.81;5052085;28;20025;-75
2023/04/09 04:39:12;;;;;;;20.80;13.93;;;;;;;5.73;100.00;100062.66;5050522;28;20468;-76
2023/04/09 04:41:38;;;;;;;22.02;15.52;;;;;;;5.50;100.00;100021.66;5051558;28;20098;-77
2023/04/09 04:44:03;;;;;;;23.20;16.08;;;;;;;5.42;100.00;99980.53;5054885;28;20115;-76
2023/04/09 04:46:29;;;;;;;22.02;16.10;;;;;;;5.50;100.00;99995.59;5051339;28;20555;-76
2023/04/09 04:48:54;;;;;;;22.98;16.38;;;;;;;5.39;100.00;100013.31;5034592;28;20040;-75
2023/04/09 04:51:19;;;;;;;21.20;15.50;;;;;;;5.86;100.00;100102.09;5050573;28;20107;-76
2023/04/09 04:53:45;;;;;;;23.92;16.73;;;;;;;5.78;100.00;100088.72;5050873;28;20052;-74
2023/04/09 04:56:14;;;;;;;20.38;15.70;;;;;;;5.64;100.00;100006.44;5034769;28;20051;-76
2023/04/09 04:58:41;;;;;;;17.90;14.00;;;;;;;5.75;100.00;100090.38;5052535;28;20044;-77
2023/04/09 05:01:07;;;;;;;19.33;13.85;;;;;;;6.13;100.00;100096.03;5051858;28;20488;-75
2023/04/09 05:03:32;;;;;;;20.23;14.63;;;;;;;6.22;100.00;100093.41;5051602;28;20159;-76
2023/04/09 05:05:59;;;;;;;18.58;13.65;;;;;;;5.70;100.00;100017.31;5035544;28;20388;-76
2023/04/09 05:08:24;;;;;;;17.48;13.25;;;;;;;6.61;100.00;100095.59;5051833;28;20479;-77
2023/04/09 05:10:54;;;;;;;18.27;13.75;;;;;;;6.34;100.00;100034.44;5051885;28;20106;-77
2023/04/09 05:13:20;;;;;;;16.33;12.45;;;;;;;6.51;100.00;99999.72;5035003;28;20052;-78
2023/04/09 05:15:46;;;;;;;14.15;12.00;;;;;;;6.91;100.00;100085.13;5050623;28;20107;-75
2023/04/09 05:18:11;;;;;;;16.55;11.45;;;;;;;6.95;100.00;100074.13;5051975;28;20044;-75
2023/04/09 05:20:36;;;;;;;15.88;11.13;;;;;;;6.36;100.00;100022.63;5051414;28;20025;-73
2023/04/09 05:23:02;;;;;;;12.80;10.10;;;;;;;7.48;100.00;100057.44;5034007;28;20037;-77
2023/04/09 05:25:27;;;;;;;13.95;10.57;;;;;;;8.04;100.00;100080.19;5050941;28;20028;-74
2023/04/09 05:27:53;;;;;;;13.65;10.60;;;;;;;8.11;100.00;100056.44;5050591;28;20048;-73
2023/04/09 05:30:18;;;;;;;14.68;10.48;;;;;;;7.76;100.00;99995.44;5051201;28;20036;-74
2023/04/09 05:32:44;;;;;;;14.27;11.55;;;;;;;8.12;100.00;100069.94;5050114;28;20462;-75
2023/04/09 05:35:17;;;;;;;15.57;10.77;;;;;;;8.74;100.00;100065.44;5035687;28;20036;-76
2023/04/09 05:37:42;;;;;;;14.10;9.73;;;;;;;9.39;100.00;100035.31;5027345;28;20025;-72
2023/04/09 05:40:08;;;;;;;12.98;10.13;;;;;;;10.15;100.00;100019.13;5051298;28;20113;-74
2023/04/09 05:42:33;;;;;;;14.38;10.40;;;;;;;8.48;100.00;100000.91;5049396;28;20124;-74
2023/04/09 05:44:59;;;;;;;24.75;11.07;;;;;;;8.40;100.00;100040.75;5033799;28;20406;-74
2023/04/09 05:47:24;;;;;;;16.60;11.20;;;;;;;9.76;100.00;100086.94;5050564;28;20060;-73
2023/04/09 05:49:50;;;;;;;18.52;10.90;;;;;;;10.27;100.00;100100.97;5051183;28;20119;-75
2023/04/09 05:52:16;;;;;;;17.92;11.13;;;;;;;9.96;100.00;100036.53;5048177;28;20514;-75
2023/04/09 05:54:41;;;;;;;13.68;10.35;;;;;;;9.09;100.00;100091.81;5030910;28;20472;-78
2023/04/09 05:57:06;;;;;;;12.43;10.30;;;;;;;9.55;100.00;100133.09;5033053;28;20545;-76
2023/04/09 05:59:32;;;;;;;14.55;10.90;;;;;;;10.13;100.00;100133.50;5057702;28;20116;-75
2023/04/09 06:01:58;;;;;;;14.00;9.95;;;;;;;10.78;100.00;100108.09;5033631;28;20495;-72
2023/04/09 06:04:23;;;;;;;13.60;10.57;;;;;;;10.00;100.00;100169.34;5059523;28;20036;-74
2023/04/09 06:06:59;;;;;;;19.30;10.57;;;;;;;10.49;100.00;100177.50;5054371;28;20029;-74
2023/04/09 06:09:25;;;;;;;16.83;10.02;;;;;;;9.17;100.00;100122.91;5029780;28;20021;-71
2023/04/09 06:11:51;;;;;;;16.92;10.68;;;;;;;9.35;100.00;100141.13;5032684;28;20445;-73
2023/04/09 06:14:17;;;;;;;12.98;10.55;;;;;;;9.63;100.00;100145.63;5032839;28;20033;-74
2023/04/09 06:16:44;;;;;;;12.15;10.18;;;;;;;9.25;100.00;100230.13;5033403;28;20032;-76
2023/04/09 06:19:11;;;;;;;11.48;10.05;;;;;;;9.19;100.00;100248.81;5031764;28;20033;-74
2023/04/09 06:21:36;;;;;;;14.82;10.30;;;;;;;8.95;100.00;100201.09;5032759;28;20025;-72
2023/04/09 06:24:02;;;;;;;12.05;9.82;;;;;;;10.26;100.00;100221.25;5046955;28;20566;-73
2023/04/09 06:26:27;;;;;;;13.02;10.27;;;;;;;10.14;100.00;100241.03;5049809;28;20048;-73
2023/04/09 06:28:53;;;;;;;11.98;9.35;;;;;;;9.55;100.00;100254.91;5049482;28;20068;-74
2023/04/09 06:31:19;;;;;;;12.75;9.95;;;;;;;9.61;100.00;100270.84;5049434;28;20075;-74
2023/04/09 06:33:45;;;;;;;11.13;9.85;;;;;;;9.86;100.00;100270.38;5030968;28;20108;-74
2023/04/09 06:36:10;;;;;;;11.77;9.18;;;;;;;10.00;100.00;100259.03;5048995;28;20115;-74
2023/04/09 06:38:35;;;;;;;11.45;9.43;;;;;;;10.35;100.00;100256.63;5031432;28;20064;-75
2023/04/09 06:41:01;;;;;;;12.60;10.30;;;;;;;9.66;100.00;100297.84;5049950;28;20685;-74
2023/04/09 06:43:27;;;;;;;12.68;10.30;;;;;;;9.68;100.00;100227.59;5031382;28;20483;-74
2023/04/09 06:45:53;;;;;;;10.63;9.10;;;;;;;9.19;100.00;100308.88;5048123;28;20407;-75
2023/04/09 06:48:18;;;;;;;10.32;9.23;;;;;;;9.37;100.00;100261.16;5050841;28;20037;-74
2023/04/09 06:50:44;;;;;;;12.43;9.65;;;;;;;9.80;100.00;100336.50;5049295;28;20025;-74
2023/04/09 06:53:09;;;;;;;10.73;9.38;;;;;;;9.98;100.00;100273.47;5048851;28;20084;-75
2023/04/09 06:55:35;;;;;;;11.18;9.35;;;;;;;9.92;100.00;100282.94;5050391;28;20098;-77
2023/04/09 06:58:01;;;;;;;11.43;9.23;;;;;;;11.01;100.00;100253.34;5050242;28;20040;-74
2023/04/09 07:00:27;;;;;;;12.80;10.43;;;;;;;10.95;100.00;100343.34;5051707;28;20120;-74
2023/04/09 07:02:52;;;;;;;11.77;9.82;;;;;;;10.55;100.00;100378.19;5054030;28;20031;-74
2023/04/09 07:05:18;;;;;;;11.57;9.88;;;;;;;11.03;100.00;100353.34;5053384;28;20064;-75
2023/04/09 07:07:44;;;;;;;12.15;9.82;;;;;;;11.01;100.00;100347.47;5052607;28;20033;-75
2023/04/09 07:10:10;;;;;;;11.45;10.02;;;;;;;11.62;100.00;100357.78;5052743;28;20142;-75
2023/04/09 07:12:36;;;;;;;10.40;9.07;;;;;;;11.98;100.00;100345.81;5052831;28;20055;-75
2023/04/09 07:15:03;;;;;;;9.95;8.88;;;;;;;11.51;100.00;100372.50;5052811;28;20166;-76
2023/04/09 07:17:30;;;;;;;9.90;8.45;;;;;;;11.98;100.00;100374.66;5052752;28;20041;-77
2023/04/09 07:19:55;;;;;;;12.05;9.23;;;;;;;10.97;100.00;100340.78;5053397;28;20025;-75
2023/04/09 07:22:22;;;;;;;10.43;9.02;;;;;;;11.11;100.00;100423.53;5053910;28;20059;-74
2023/04/09 07:24:52;;;;;;;11.65;9.63;;;;;;;11.80;100.00;100425.28;5053993;28;20040;-75
2023/04/09 07:27:22;;;;;;;10.75;9.57;;;;;;;11.42;100.00;100423.66;5052949;28;20475;-75
2023/04/09 07:29:47;;;;;;;9.65;8.65;;;;;;;11.33;100.00;100428.94;5052856;28;20021;-75
2023/04/09 07:32:13;;;;;;;10.60;8.75;;;;;;;11.75;100.00;100299.72;5052974;28;20029;-75
2023/04/09 07:34:38;;;;;;;10.50;8.85;;;;;;;11.75;100.00;100381.25;5052424;28;20052;-77
2023/04/09 07:37:04;;;;;;;9.68;8.68;;;;;;;13.03;100.00;100401.31;5052717;28;20029;-76
2023/04/09 07:39:30;;;;;;;10.85;8.95;;;;;;;13.11;100.00;100447.06;5052989;28;20099;-76
2023/04/09 07:41:56;;;;;;;9.48;8.15;;;;;;;11.80;100.00;100400.66;5052534;28;20033;-75
2023/04/09 07:44:22;;;;;;;9.95;8.50;;;;;;;11.21;100.00;100468.25;5052619;28;20187;-74
2023/04/09 07:46:47;;;;;;;9.55;8.55;;;;;;;11.47;100.00;100452.38;5053408;28;20093;-74
2023/04/09 07:49:13;;;;;;;9.88;8.40;;;;;;;11.93;100.00;100442.75;5053526;28;20033;-74
2023/04/09 07:51:38;;;;;;;9.40;8.18;;;;;;;11.22;100.00;100494.53;5053299;28;20029;-76
2023/04/09 07:54:04;;;;;;;8.98;7.82;;;;;;;11.00;100.00;100472.97;5052090;28;20101;-75
2023/04/09 07:56:30;;;;;;;10.40;8.32;;;;;;;12.66;100.00;100535.94;5052053;28;20098;-75
2023/04/09 07:58:55;;;;;;;9.45;7.90;;;;;;;12.52;100.00;100539.75;5051921;28;20025;-75
2023/04/09 08:01:23;;;;;;;11.43;8.32;;;;;;;11.21;100.00;100526.78;5052941;28;20041;-74
2023/04/09 08:03:49;;;;;;;8.90;7.57;;;;;;;11.49;100.00;100529.53;5051816;28;20025;-75
2023/04/09 08:06:14;;;;;;;8.30;7.40;;;;;;;11.68;100.00;100602.16;5051915;28;20078;-75
2023/04/09 08:08:40;;;;;;;7.35;6.60;;;;;;;12.14;100.00;100579.00;5051330;28;20028;-76
2023/04/09 08:11:06;;;;;;;7.93;6.80;;;;;;;12.97;100.00;100598.00;5051459;28;20348;-74
2023/04/09 08:13:33;;;;;;;8.10;6.78;;;;;;;12.66;100.00;100611.63;5052840;28;20032;-74
2023/04/09 08:16:02;;;;;;;8.75;6.85;;;;;;;13.02;100.00;100526.41;5052617;28;20029;-74
2023/04/09 08:18:28;;;;;;;7.90;6.13;;;;;;;12.95;100.00;100614.25;5051682;28;20547;-74
2023/04/09 08:20:55;;;;;;;7.10;6.35;;;;;;;12.19;100.00;100562.69;5053024;28;20068;-75
2023/04/09 08:23:20;;;;;;;7.75;6.43;;;;;;;12.48;100.00;100590.00;5052180;28;20029;-74
2023/04/09 08:25:46;;;;;;;7.45;6.65;;;;;;;12.62;100.00;100613.44;5052409;28;20032;-75
2023/04/09 08:28:11;;;;;;;8.73;6.75;;;;;;;12.16;100.00;100590.81;5051740;28;20068;-75
2023/04/09 08:30:36;;;;;;;7.50;6.53;;;;;;;12.23;100.00;100672.22;5051906;28;20571;-75
2023/04/09 08:33:02;;;;;;;7.80;5.57;;;;;;;12.47;100.00;100676.75;5051201;28;20037;-75
2023/04/09 08:35:30;;;;;;;9.90;6.35;;;;;;;12.98;100.00;100662.66;5052519;28;20044;-76
2023/04/09 08:37:55;;;;;;;7.95;6.18;;;;;;;13.06;100.00;100670.97;5052702;28;20036;-76
2023/04/09 08:40:21;;;;;;;7.35;5.70;;;;;;;12.69;100.00;100695.75;5052978;28;20029;-76
2023/04/09 08:42:53;;;;;;;5.95;5.35;;;;;;;12.98;100.00;100685.63;5051989;28;20029;-76
2023/04/09 08:45:18;;;;;;;5.68;4.72;;;;;;;13.00;100.00;100668.56;5052878;28;20082;-76
2023/04/09 08:47:46;;;;;;;5.43;4.88;;;;;;;13.83;100.00;100667.03;5050936;28;20449;-76
2023/04/09 08:50:13;;;;;;;5.20;4.70;;;;;;;13.20;100.00;100610.16;5052708;28;20033;-76
2023/04/09 08:52:39;;;;;;;5.28;4.78;;;;;;;12.86;100.00;100645.13;5052574;28;20045;-75
2023/04/09 08:55:06;;;;;;;5.95;4.78;;;;;;;13.75;100.00;100704.75;5052314;28;20029;-75
2023/04/09 08:57:37;;;;;;;5.22;3.95;;;;;;;13.69;100.00;100618.06;5050955;28;20107;-74
2023/04/09 09:00:03;;;;;;;6.10;4.40;;;;;;;13.62;100.00;100731.56;5051158;28;20029;-75
2023/04/09 09:02:30;;;;;;;5.20;4.53;;;;;;;13.03;100.00;100660.84;5052052;28;20037;-74
2023/04/09 09:04:59;;;;;;;5.80;4.85;;;;;;;13.67;100.00;100731.41;5052198;28;20472;-74
2023/04/09 09:07:26;;;;;;;5.88;4.55;;;;;;;13.15;100.00;100706.50;5050849;28;20177;-76
2023/04/09 09:09:54;;;;;;;6.05;4.25;;;;;;;13.74;100.00;100694.59;5051314;28;20055;-76
2023/04/09 09:12:40;;;;;;;5.05;4.55;;;;;;;13.88;100.00;100734.19;5051328;28;20037;-76
2023/04/09 09:15:26;;;;;;;4.32;3.50;;;;;;;14.05;100.00;100746.47;5051064;28;20033;-74
2023/04/09 09:17:56;;;;;;;5.00;4.28;;;;;;;13.68;100.00;100700.72;5052063;28;20028;-75
2023/04/09 09:20:23;;;;;;;6.03;5.43;;;;;;;14.02;100.00;100751.69;5051409;28;20103;-76
2023/04/09 09:22:50;;;;;;;4.68;4.18;;;;;;;13.42;100.00;100690.41;5052032;28;20056;-75
2023/04/09 09:25:16;;;;;;;4.20;3.80;;;;;;;14.31;100.00;100758.50;5051181;28;20024;-76
2023/04/09 09:27:42;;;;;;;4.93;3.80;;;;;;;13.92;100.00;100761.34;5034269;28;20036;-74
2023/04/09 09:30:09;;;;;;;4.70;4.20;;;;;;;14.37;100.00;100786.47;5052103;28;20029;-76
2023/04/09 09:32:35;;;;;;;4.63;3.80;;;;;;;14.69;100.00;100722.31;5051823;28;20029;-76
2023/04/09 09:35:05;;;;;;;3.75;3.17;;;;;;;13.62;100.00;100749.44;5034184;28;20024;-75
2023/04/09 09:37:31;;;;;;;4.38;3.97;;;;;;;14.22;100.00;100804.81;5030848;28;20037;-75
2023/04/09 09:39:57;;;;;;;4.05;3.50;;;;;;;14.58;100.00;100738.00;5051063;28;20033;-73
2023/04/09 09:42:23;;;;;;;5.05;4.53;;;;;;;14.39;100.00;100751.44;5051041;28;20506;-74
2023/04/09 09:44:50;;;;;;;4.97;4.18;;;;;;;14.90;100.00;100803.53;5050953;28;20029;-74
2023/04/09 09:47:18;;;;;;;4.95;4.10;;;;;;;14.22;100.00;100822.72;5051478;28;20049;-75
2023/04/09 09:49:44;;;;;;;5.35;4.07;;;;;;;14.44;100.00;100755.53;5051385;28;20025;-74
2023/04/09 09:52:10;;;;;;;5.15;3.80;;;;;;;15.04;100.00;100791.13;5050935;28;20443;-75
2023/04/09 09:54:41;;;;;;;5.70;4.57;;;;;;;15.02;100.00;100833.03;5051421;28;20491;-75
2023/04/09 09:57:12;;;;;;;5.57;4.82;;;;;;;16.04;100.00;100836.34;5051036;28;20033;-75
2023/04/09 09:59:42;;;;;;;5.20;4.60;;;;;;;14.70;100.00;100770.91;5051220;28;20037;-75
2023/04/09 10:02:18;;;;;;;6.82;4.50;;;;;;;15.92;100.00;100760.69;5051262;28;20411;-74
2023/04/09 10:04:44;;;;;;;5.20;4.70;;;;;;;14.31;100.00;100771.31;5050567;28;20029;-74
2023/04/09 10:07:10;;;;;;;5.55;4.28;;;;;;;15.20;100.00;100797.41;5050428;28;20062;-74
2023/04/09 10:09:41;;;;;;;5.07;4.25;;;;;;;14.65;100.00;100731.81;5051005;28;20039;-74
2023/04/09 10:12:09;;;;;;;4.00;3.63;;;;;;;14.88;100.00;100789.94;5033448;28;20040;-74
2023/04/09 10:14:36;;;;;;;4.72;4.07;;;;;;;14.71;100.00;100771.75;5050181;28;20033;-73
2023/04/09 10:17:02;;;;;;;4.40;4.00;;;;;;;15.32;100.00;100825.19;5033186;28;20028;-75
2023/04/09 10:19:30;;;;;;;4.75;3.60;;;;;;;14.74;100.00;100728.09;5051183;28;20032;-75
2023/04/09 10:22:03;;;;;;;4.25;3.85;;;;;;;15.60;100.00;100815.69;5051424;28;20033;-76
2023/04/09 10:24:35;;;;;;;4.22;3.78;;;;;;;16.58;100.00;100836.03;5051405;28;20475;-76
2023/04/09 10:27:19;;;;;;;4.95;3.83;;;;;;;14.83;100.00;100766.22;5050443;28;20487;-75
2023/04/09 10:29:47;;;;;;;4.30;3.58;;;;;;;15.86;100.00;100862.66;5030102;28;20032;-75
2023/04/09 10:32:25;;;;;;;4.55;3.90;;;;;;;15.32;100.00;100775.66;5032651;28;20033;-75
2023/04/09 10:34:51;;;;;;;5.65;4.07;;;;;;;16.12;100.00;100757.38;5051694;28;20496;-74
2023/04/09 10:37:24;;;;;;;5.72;4.30;;;;;;;16.18;100.00;100811.00;5054536;28;20120;-74
2023/04/09 10:39:51;;;;;;;4.45;4.00;;;;;;;16.47;100.00;100796.19;5054558;28;20060;-74
2023/04/09 10:42:23;;;;;;;4.80;4.05;;;;;;;16.44;100.00;100762.91;5036679;28;20135;-75
2023/04/09 10:45:10;;;;;;;4.60;4.10;;;;;;;16.21;100.00;100780.94;5055006;28;20487;-75
2023/04/09 10:47:38;;;;;;;4.63;4.22;;;;;;;16.50;100.00;100714.84;5054443;28;20068;-74
2023/04/09 10:50:35;;;;;;;5.07;4.38;;;;;;;16.26;100.00;100789.28;5036809;28;20036;-75
2023/04/09 10:53:03;;;;;;;5.47;4.55;;;;;;;16.64;100.00;100785.25;5028428;28;20411;-74
2023/04/09 10:55:37;;;;;;;4.80;4.40;;;;;;;15.56;100.00;100734.66;5054432;28;20025;-75
2023/04/09 10:58:04;;;;;;;5.35;4.57;;;;;;;15.63;100.00;100716.50;5036558;28;20112;-74
2023/04/09 11:00:30;;;;;;;6.18;4.13;;;;;;;16.35;100.00;100785.53;5053339;28;20033;-76
2023/04/09 11:03:01;;;;;;;6.50;4.47;;;;;;;16.49;100.00;100808.97;5054472;28;20677;-77
2023/04/09 11:05:37;;;;;;;4.22;3.83;;;;;;;15.93;100.00;100698.22;5053741;28;20058;-77
2023/04/09 11:08:12;;;;;;;4.55;4.03;;;;;;;16.43;100.00;100786.06;5037001;28;20044;-76
2023/04/09 11:10:43;;;;;;;4.35;3.92;;;;;;;16.83;100.00;100782.78;5055008;28;20549;-77
2023/04/09 11:13:13;;;;;;;4.55;3.90;;;;;;;16.19;100.00;100761.34;5037024;28;20033;-77